Hauptseite
METAR-TAF:

METAR-TAF

Flughäfen :

Flughafen San Sebastián

San Sebastián, Spanien

Breite: 43-21N, Länge: 001-48W, Höhe: 5 m

Beobachtung

Neuester Wetterbericht von vor 37 Minuten, um 00:00 UTC
Wind 2 kt aus unterschiedlichen Richtungen
Temperatur 11°C
Luftfeuchtigkeit 94%
Luftdruck 1018 hPa
Sichtweite: 9000 m

METAR: LESO 150000Z AUTO VRB02KT 9000 NCD 11/10 Q1018

Zeit: 01:37 (00:37 UTC)

Prognose

Neuester Wetterbericht von vor 1 Stunde und 37 Minuten, um 23:00 UTC
Gültige Prognose vom 15 um 00 UTC bis 15 um 24 UTC
Wind 8 kt aus Süd/Südost
Sichtweite 10 km oder mehr
keine Wolken unter 1500 m und keine Kumulonimbus oder Gewitterwolken

TAF: LESO 142300Z 1500/1524 15008KT CAVOK TX23/1514Z TN09/1506Z

Wetterbeobachtungen und Prognosen von mehr als 4000 Flughäfen (METAR und TAF Bericht).

Die verfügbaren Stationen werden durch gelbe und rote Markierungen auf der Karte dargestellt.

Führen Sie die Maus auf sie, um den Namen der Station zu sehen.

Darauf klicken, um die Beobachtung von Wetterbeobachtungen und Prognosen zu sehen.

Um die Karte zu ändern : klicken Sie auf den grünen Tasten mit einem schwarzen Kreuz Zum Vergrößern, auf den grünen Button mit einem Gedankenstrich zu verkleinern, oder auf die grünen Pfeile für benachbarte Karten.


METAR-TAF: